Latest Weather Observations for Lucas Heights

IDN60901

Issued at 3:31 am EST Thursday 24 August 2017 (issued every 10 minutes, with the page automatically refreshed every 10 minutes)

About weather observations | Map of Sydney area stations | Latest observations for Sydney area | Other Formats
Station Details ID: 066023 Name: LUCAS HEIGHTS AWS Lat: -34.05 Lon: 150.98 Height: 140.0 m
Data from the previous 72 hours. | See also: Recent months for locations in New South Wales
Date/Time
EST
Temp
°C
App
Temp
°C
Dew
Point
°C
Rel
Hum
%
Delta-T
°C
Wind Press
QNH
hPa
Press
MSL
hPa
Rain since
9am
mm
Dir  Spd
km/h
Gust
km/h
Spd
kts
Gust
kts
24/03:15am 9.1 5.1 2.6 64 2.8 SSW 13 17 7 9 1016.0 - 0.0
24/03:00am 10.4 6.4 2.9 59 3.3 SSW 13 17 7 9 1016.1 - 0.0
24/02:45am 11.1 6.4 3.3 58 3.4 SSW 17 20 9 11 1016.2 - 0.0
24/02:30am 11.1 6.5 3.8 61 3.3 SW 17 20 9 11 1016.3 - 0.0
24/02:15am 10.3 6.2 4.1 65 2.8 SSW 15 22 8 12 1016.3 - 0.0
24/02:00am 10.1 6.3 3.8 65 2.8 SSW 13 19 7 10 1016.4 - 0.0
24/01:45am 10.9 7.1 3.7 61 3.2 S 13 19 7 10 1016.5 - 0.0
24/01:30am 12.1 7.5 3.8 57 3.7 SSW 17 22 9 12 1016.6 - 0.0
24/01:15am 12.5 7.4 4.0 56 3.9 SSW 20 26 11 14 1016.8 - 0.0
24/01:00am 12.8 7.0 4.3 56 3.9 SSW 24 32 13 17 1016.9 - 0.0
24/12:45am 12.6 5.8 5.1 60 3.5 SSW 30 33 16 18 1017.0 - 0.0
24/12:30am 10.7 5.3 6.4 75 2.0 SSW 24 32 13 17 1017.1 - 0.0
24/12:15am 9.4 5.3 6.0 79 1.6 SSW 17 24 9 13 1017.2 - 0.0
24/12:00am 9.6 5.3 7.1 84 1.2 S 19 22 10 12 1017.2 - 0.0
 
Date/Time
EST
Temp
°C
App
Temp
°C
Dew
Point
°C
Rel
Hum
%
Delta-T
°C
Wind Press
QNH
hPa
Press
MSL
hPa
Rain since
9am
mm
Dir  Spd
km/h
Gust
km/h
Spd
kts
Gust
kts
23/11:45pm 9.7 5.4 8.0 89 0.8 S 20 24 11 13 1017.3 - 0.0
23/11:30pm 9.1 4.4 7.8 92 0.6 S 22 24 12 13 1017.3 - 0.0
23/11:15pm 8.7 4.5 7.4 91 0.6 S 19 20 10 11 1017.3 - 0.0
23/11:00pm 8.9 5.5 7.5 91 0.7 S 15 19 8 10 1017.2 - 0.0
23/10:45pm 9.3 6.3 7.9 91 0.7 S 13 15 7 8 1017.2 - 0.0
23/10:30pm 9.4 6.5 8.0 91 0.7 SSW 13 15 7 8 1017.2 - 0.0
23/10:15pm 9.4 7.2 8.0 91 0.7 SSW 9 11 5 6 1017.2 - 0.0
23/10:00pm 9.7 8.1 8.1 90 0.8 SW 6 7 3 4 1017.3 - 0.0
23/09:45pm 10.2 9.1 8.5 89 0.8 WSW 4 6 2 3 1017.4 - 0.0
23/09:30pm 10.5 9.8 8.7 89 0.9 SW 2 4 1 2 1017.4 - 0.0
23/09:15pm 10.9 10.3 9.0 88 0.9 SW 2 4 1 2 1017.4 - 0.0
23/09:00pm 11.8 11.4 9.7 87 1.1 SSW 2 4 1 2 1017.4 - 0.0
23/08:45pm 12.5 12.3 10.5 88 1.0 SSW 2 6 1 3 1017.4 - 0.0
23/08:30pm 12.2 10.9 10.1 87 1.1 S 7 11 4 6 1017.3 - 0.0
23/08:15pm 12.5 11.3 10.3 86 1.1 SSE 7 9 4 5 1017.3 - 0.0
23/08:00pm 12.7 11.7 10.4 86 1.2 S 6 6 3 3 1017.2 - 0.0
23/07:45pm 12.8 11.8 10.4 85 1.3 SSE 6 9 3 5 1017.0 - 0.0
23/07:30pm 13.1 12.2 10.5 84 1.4 SSE 6 7 3 4 1016.8 - 0.0
23/07:15pm 13.5 12.9 10.5 82 1.6 E 4 7 2 4 1016.7 - 0.0
23/07:00pm 14.1 13.3 11.1 82 1.6 ENE 6 7 3 4 1016.6 - 0.0
23/06:45pm 13.8 12.9 10.6 81 1.7 ESE 6 9 3 5 1016.6 - 0.0
23/06:30pm 14.2 12.7 10.6 79 1.9 ENE 9 11 5 6 1016.3 - 0.0
23/06:15pm 14.6 13.5 10.5 76 2.2 ENE 7 11 4 6 1016.2 - 0.0
23/06:00pm 15.2 13.7 10.5 73 2.5 ENE 9 13 5 7 1016.1 - 0.0
23/05:45pm 15.9 14.0 10.6 71 2.8 ENE 11 15 6 8 1016.0 - 0.0
23/05:30pm 16.5 13.8 10.5 67 3.2 ENE 15 17 8 9 1015.8 - 0.0
23/05:15pm 17.2 14.6 10.6 65 3.5 ENE 15 17 8 9 1015.8 - 0.0
23/05:00pm 17.9 16.4 10.6 62 3.9 ENE 9 15 5 8 1015.7 - 0.0
23/04:45pm 18.4 16.6 10.7 61 4.2 ENE 11 17 6 9 1015.5 - 0.0
23/04:30pm 18.7 16.5 10.7 59 4.3 ENE 13 17 7 9 1015.4 - 0.0
23/04:15pm 19.0 16.4 10.8 59 4.5 ENE 15 17 8 9 1015.4 - 0.0
23/04:00pm 19.1 16.4 10.5 57 4.7 NE 15 19 8 10 1015.4 - 0.0
23/03:45pm 19.5 16.8 10.3 55 5.0 NE 15 19 8 10 1015.4 - 0.0
23/03:30pm 20.0 17.6 9.9 52 5.4 NE 13 19 7 10 1015.4 - 0.0
23/03:15pm 20.4 18.1 8.9 47 6.1 NE 11 15 6 8 1015.4 - 0.0
23/03:00pm 21.0 18.7 4.9 35 7.9 NE 6 15 3 8 1015.5 - 0.0
23/02:45pm 20.6 18.2 4.5 34 7.9 NNE 6 9 3 5 1015.6 - 0.0
23/02:30pm 20.4 18.3 3.9 33 8.0 N 4 9 2 5 1015.7 - 0.0
23/02:15pm 20.5 18.6 4.9 36 7.7 N 4 11 2 6 1016.0 - 0.0
23/02:00pm 20.4 18.8 6.3 40 7.1 NNW 4 9 2 5 1016.1 - 0.0
23/01:45pm 20.4 18.8 6.3 40 7.1 NNE 4 9 2 5 1016.3 - 0.0
23/01:30pm 19.8 17.7 5.7 39 7.0 NNW 6 13 3 7 1016.5 - 0.0
23/01:15pm 19.7 18.3 7.4 45 6.3 N 4 9 2 5 1016.7 - 0.0
23/01:00pm 19.0 17.0 7.1 46 6.0 N 7 13 4 7 1017.0 - 0.0
23/12:45pm 18.7 16.9 7.2 47 5.8 NW 6 11 3 6 1017.4 - 0.0
23/12:30pm 18.4 16.5 7.6 49 5.5 N 7 13 4 7 1017.7 - 0.0
23/12:15pm 18.0 15.7 7.6 50 5.3 NNW 9 17 5 9 1018.0 - 0.0
23/12:00pm 18.0 16.3 8.2 52 5.1 N 7 15 4 8 1018.3 - 0.0
23/11:45am 17.4 15.7 8.3 55 4.7 NNW 7 13 4 7 1018.6 - 0.0
23/11:30am 17.1 15.4 8.3 56 4.5 NW 7 19 4 10 1018.9 - 0.0
23/11:15am 16.9 14.9 8.5 57 4.3 NW 9 15 5 8 1019.2 - 0.0
23/11:00am 16.6 14.6 8.8 60 4.0 NW 9 19 5 10 1019.4 - 0.0
23/10:45am 16.1 13.3 8.5 60 3.9 NNW 13 24 7 13 1019.4 - 0.0
23/10:30am 16.1 14.1 8.6 61 3.9 NW 9 17 5 9 1019.5 - 0.0
23/10:15am 15.5 13.8 8.5 63 3.6 NW 7 17 4 9 1019.6 - 0.0
23/10:00am 14.9 11.9 7.9 63 3.5 NW 13 19 7 10 1019.7 - 0.0
23/09:45am 14.7 12.1 7.7 63 3.5 WNW 11 17 6 9 1019.9 - 0.0
23/09:30am 14.5 12.2 7.5 63 3.5 WNW 9 13 5 7 1020.0 - 0.0
23/09:15am 14.2 11.9 7.3 63 3.4 W 9 17 5 9 1020.1 - 0.0
23/09:00am 13.9 11.6 7.4 65 3.2 W 9 13 5 7 1020.1 - 0.0
23/08:45am 13.6 11.3 7.4 66 3.1 W 9 17 5 9 1020.2 - 0.0
23/08:30am 13.1 11.5 8.9 75 2.1 W 7 11 4 6 1020.2 - 0.0
23/08:15am 10.7 9.1 8.7 87 1.0 W 7 13 4 7 1020.2 - 0.0
23/08:00am 8.8 6.4 7.2 90 0.8 W 9 11 5 6 1020.2 - 0.0
23/07:45am 7.5 4.5 6.1 91 0.6 W 11 11 6 6 1020.3 - 0.0
23/07:30am 6.4 3.6 5.0 91 0.6 W 9 11 5 6 1020.2 - 0.0
23/07:15am 5.5 2.9 4.2 91 0.6 W 7 9 4 5 1020.2 - 0.0
23/07:00am 5.2 2.1 3.8 91 0.6 W 9 13 5 7 1020.1 - 0.0
23/06:45am 4.9 1.8 3.5 91 0.6 W 9 11 5 6 1020.1 - 0.0
23/06:30am 4.8 1.6 3.3 90 0.6 W 9 11 5 6 1020.0 - 0.0
23/06:15am 4.8 1.6 3.3 90 0.6 WSW 9 11 5 6 1019.9 - 0.0
23/06:00am 5.3 1.9 3.8 90 0.6 W 11 13 6 7 1019.8 - 0.0
23/05:45am 5.3 1.9 3.8 90 0.6 W 11 13 6 7 1019.8 - 0.0
23/05:30am 6.1 2.8 4.6 90 0.7 W 11 13 6 7 1019.8 - 0.0
23/05:15am 6.5 3.0 5.3 92 0.5 W 13 15 7 8 1019.7 - 0.0
23/05:00am 5.3 1.5 4.0 91 0.6 W 13 15 7 8 1019.7 - 0.0
23/04:45am 5.2 1.4 3.8 91 0.6 W 13 13 7 7 1019.7 - 0.0
23/04:30am 5.3 1.9 3.9 91 0.6 W 11 13 6 7 1019.9 - 0.0
23/04:15am 5.4 2.0 4.0 91 0.6 W 11 13 6 7 1019.9 - 0.0
23/04:00am 5.4 2.4 4.1 91 0.6 W 9 11 5 6 1019.9 - 0.0
23/03:45am 5.4 2.4 4.0 91 0.6 W 9 13 5 7 1019.8 - 0.0
23/03:30am 5.4 2.0 4.0 91 0.6 W 11 13 6 7 1020.1 - 0.0
23/03:15am 5.6 2.2 4.1 90 0.6 W 11 13 6 7 1020.2 - 0.0
23/03:00am 5.6 2.2 4.2 91 0.6 W 11 13 6 7 1020.2 - 0.0
23/02:45am 5.6 2.6 4.2 91 0.6 W 9 11 5 6 1020.2 - 0.0
23/02:30am 5.4 2.4 4.0 91 0.6 W 9 11 5 6 1020.3 - 0.0
23/02:15am 5.6 2.6 4.1 90 0.6 WNW 9 11 5 6 1020.4 - 0.0
23/02:00am 5.9 3.0 4.4 90 0.6 WNW 9 11 5 6 1020.4 - 0.0
23/01:45am 5.9 2.6 4.4 90 0.6 WNW 11 11 6 6 1020.5 - 0.0
23/01:30am 5.8 2.8 4.3 90 0.6 WNW 9 11 5 6 1020.5 - 0.0
23/01:15am 5.9 2.6 4.4 90 0.6 WNW 11 13 6 7 1020.7 - 0.0
23/01:00am 6.0 3.1 4.4 89 0.7 WNW 9 13 5 7 1020.8 - 0.0
23/12:45am 6.2 3.3 4.6 89 0.7 WNW 9 11 5 6 1020.9 - 0.0
23/12:30am 6.0 3.0 4.3 89 0.7 W 9 11 5 6 1020.9 - 0.0
23/12:15am 5.9 2.9 4.1 88 0.8 W 9 11 5 6 1020.8 - 0.0
23/12:00am 6.2 3.6 4.4 88 0.8 W 7 11 4 6 1020.8 - 0.0
 
Date/Time
EST
Temp
°C
App
Temp
°C
Dew
Point
°C
Rel
Hum
%
Delta-T
°C
Wind Press
QNH
hPa
Press
MSL
hPa
Rain since
9am
mm
Dir  Spd
km/h
Gust
km/h
Spd
kts
Gust
kts
22/11:45pm 6.2 3.2 4.3 88 0.8 W 9 11 5 6 1021.0 - 0.0
22/11:30pm 6.5 3.6 4.5 87 0.9 W 9 11 5 6 1021.1 - 0.0
22/11:15pm 6.6 3.7 4.6 87 0.9 W 9 11 5 6 1021.2 - 0.0
22/11:00pm 7.0 3.8 4.9 86 0.9 W 11 13 6 7 1021.4 - 0.0
22/10:45pm 7.4 4.2 5.3 86 0.9 W 11 13 6 7 1021.5 - 0.0
22/10:30pm 7.3 4.1 5.0 85 1.0 W 11 13 6 7 1021.5 - 0.0
22/10:15pm 7.6 4.4 5.2 85 1.1 WNW 11 13 6 7 1021.5 - 0.0
22/10:00pm 7.8 5.0 5.2 84 1.2 WNW 9 11 5 6 1021.6 - 0.0
22/09:45pm 8.3 6.0 5.5 82 1.3 NNW 7 9 4 5 1021.5 - 0.0
22/09:30pm 9.0 6.7 5.9 81 1.4 - 7 9 4 5 1021.5 - 0.0
22/09:15pm 9.3 7.1 6.1 80 1.5 NNE 7 11 4 6 1021.3 - 0.0
22/09:00pm 9.2 6.6 5.9 80 1.5 NNE 9 11 5 6 1021.2 - 0.0
22/08:45pm 9.4 6.7 5.8 78 1.7 NE 9 11 5 6 1021.2 - 0.0
22/08:30pm 9.9 7.3 5.9 76 1.9 ENE 9 11 5 6 1021.2 - 0.0
22/08:15pm 10.4 7.8 6.1 75 2.0 ENE 9 11 5 6 1021.1 - 0.0
22/08:00pm 10.7 8.1 6.2 74 2.1 ENE 9 11 5 6 1021.1 - 0.0
22/07:45pm 11.0 8.4 6.2 72 2.3 ENE 9 11 5 6 1021.0 - 0.0
22/07:30pm 11.1 8.4 5.8 70 2.5 E 9 11 5 6 1020.8 - 0.0
22/07:15pm 11.5 8.8 5.4 66 2.8 E 9 11 5 6 1020.8 - 0.0
22/07:00pm 12.2 9.5 5.7 64 3.1 E 9 13 5 7 1020.7 - 0.0
22/06:45pm 12.8 9.4 5.9 63 3.3 E 13 15 7 8 1020.5 - 0.0
22/06:30pm 13.0 10.0 5.8 61 3.4 E 11 13 6 7 1020.3 - 0.0
22/06:15pm 13.2 10.1 5.7 60 3.6 E 11 15 6 8 1020.1 - 0.0
22/06:00pm 13.4 10.3 5.5 59 3.7 E 11 13 6 7 1019.9 - 0.0
22/05:45pm 13.8 11.1 5.4 57 4.0 E 9 13 5 7 1019.7 - 0.0
22/05:30pm 14.2 11.1 5.4 55 4.2 E 11 15 6 8 1019.6 - 0.0
22/04:00pm 16.4 12.6 3.9 43 5.8 E 13 17 7 9 1018.5 - 0.0
22/03:45pm 16.3 12.4 3.6 42 5.9 ESE 13 19 7 10 1018.4 - 0.0
22/03:30pm 16.5 12.7 3.7 42 6.0 ESE 13 17 7 9 1018.2 - 0.0
22/03:15pm 16.7 12.9 3.7 42 6.1 ESE 13 19 7 10 1018.0 - 0.0
22/03:00pm 16.8 12.8 3.0 39 6.4 ESE 13 22 7 12 1018.0 - 0.0
22/02:45pm 16.9 12.5 2.6 38 6.5 ESE 15 20 8 11 1018.0 - 0.0
22/02:30pm 17.3 13.3 2.6 37 6.7 ESE 13 22 7 12 1018.0 - 0.0
22/02:15pm 17.7 13.3 2.6 36 6.9 E 15 22 8 12 1018.0 - 0.0
22/02:00pm 17.2 12.8 2.9 38 6.6 E 15 22 8 12 1018.0 - 0.0
22/01:45pm 16.9 13.3 2.8 39 6.5 E 11 20 6 11 1018.0 - 0.0
22/01:30pm 17.6 14.6 3.9 40 6.5 NE 9 19 5 10 1018.0 - 0.0
22/01:15pm 17.4 15.4 2.3 36 6.9 N 2 6 1 3 1018.1 - 0.0
22/01:00pm 18.2 15.6 3.0 36 7.1 NW 6 11 3 6 1018.1 - 0.0
22/12:45pm 17.9 16.1 3.5 38 6.8 NW 2 11 1 6 1018.4 - 0.0
22/12:30pm 17.4 15.5 2.6 37 6.8 WSW 2 6 1 3 1018.6 - 0.0
22/12:15pm 17.2 14.5 2.5 37 6.7 WNW 6 13 3 7 1018.8 - 0.0
22/12:00pm 17.4 14.6 3.0 38 6.7 NNW 7 13 4 7 1019.0 - 0.0
22/11:45am 17.3 14.6 2.8 38 6.7 NNW 6 11 3 6 1019.2 - 0.0
22/11:30am 17.4 14.6 2.1 36 6.9 S 6 13 3 7 1019.3 - 0.0
22/11:15am 17.0 14.9 1.9 36 6.8 WSW 2 9 1 5 1019.3 - 0.0
22/11:00am 16.9 14.5 2.0 36 6.7 SW 4 11 2 6 1019.5 - 0.0
22/10:45am 16.4 14.1 3.0 40 6.2 SE 4 9 2 5 1019.6 - 0.0
22/10:30am 16.5 14.2 3.0 40 6.2 SSE 4 9 2 5 1019.7 - 0.0
22/10:15am 16.0 13.7 3.0 41 5.9 SSE 4 9 2 5 1019.7 - 0.0
22/10:00am 15.6 13.0 3.3 43 5.6 SE 6 9 3 5 1019.6 - 0.0
22/09:45am 15.4 12.9 3.5 45 5.5 SE 6 9 3 5 1019.5 - 0.0
22/09:30am 15.2 12.7 3.7 46 5.3 S 6 9 3 5 1019.5 - 0.0
22/09:15am 15.1 13.1 4.4 48 5.0 SSW 4 6 2 3 1019.5 - 0.0
22/09:00am 14.9 13.0 5.1 52 4.6 SSW 4 6 2 3 1019.5 - 0.0
22/08:45am 13.9 11.8 5.9 58 3.8 SW 6 9 3 5 1019.5 - 0.0
22/08:30am 12.3 9.4 6.4 67 2.8 SSW 11 13 6 7 1019.5 - 0.0
22/08:15am 10.3 7.3 6.2 76 1.9 SSW 11 13 6 7 1019.5 - 0.0
22/08:00am 9.0 5.6 6.1 82 1.3 SSW 13 15 7 8 1019.4 - 0.0
22/07:45am 7.2 3.6 4.9 85 1.0 SSW 13 13 7 7 1019.1 - 0.0
22/07:30am 6.2 2.4 4.1 86 0.9 SSW 13 15 7 8 1019.0 - 0.0
22/07:15am 5.6 1.7 3.4 86 0.9 SSW 13 13 7 7 1018.8 - 0.0
22/07:00am 5.7 1.8 3.5 86 0.9 SSW 13 13 7 7 1018.7 - 0.0
22/06:45am 5.8 2.7 3.6 86 0.9 SSW 9 11 5 6 1018.4 - 0.0
22/06:30am 5.7 2.2 3.4 85 1.0 SSW 11 13 6 7 1018.3 - 0.0
22/06:15am 5.9 2.4 3.4 84 1.1 S 11 13 6 7 1018.2 - 0.0
22/06:00am 6.1 2.6 3.6 84 1.1 SSW 11 13 6 7 1018.0 - 0.0
22/05:45am 6.3 2.8 3.5 82 1.2 S 11 11 6 6 1017.9 - 0.0
22/05:30am 6.6 3.6 4.0 83 1.1 S 9 11 5 6 1017.9 - 0.0
22/05:15am 6.4 2.9 3.7 83 1.2 S 11 11 6 6 1017.9 - 0.0
22/05:00am 6.8 3.4 4.0 82 1.2 S 11 11 6 6 1017.8 - 0.0
22/04:45am 7.0 4.0 4.1 82 1.3 S 9 11 5 6 1017.6 - 0.0
22/04:30am 7.2 3.8 4.2 81 1.3 S 11 13 6 7 1017.4 - 0.0
22/04:15am 7.4 3.7 4.4 81 1.3 S 13 13 7 7 1017.2 - 0.0
22/04:00am 7.6 3.9 4.6 81 1.3 S 13 13 7 7 1017.1 - 0.0
22/03:45am 7.6 4.7 4.6 81 1.3 SSW 9 13 5 7 1016.9 - 0.0
22/03:30am 7.7 4.4 4.6 81 1.4 SSW 11 13 6 7 1016.9 - 0.0
22/03:15am 8.0 4.7 4.8 80 1.4 S 11 13 6 7 1016.9 - 0.0
22/03:00am 8.2 5.0 5.1 81 1.4 S 11 13 6 7 1016.9 - 0.0
22/02:45am 8.1 5.3 5.1 81 1.3 S 9 13 5 7 1017.0 - 0.0
22/02:30am 8.2 5.0 5.2 81 1.3 S 11 11 6 6 1017.1 - 0.0
22/02:15am 8.1 5.3 5.1 81 1.3 S 9 11 5 6 1017.2 - 0.0
22/02:00am 8.3 5.5 5.2 81 1.4 S 9 11 5 6 1017.3 - 0.0
22/01:45am 8.4 5.7 5.4 81 1.4 SSW 9 11 5 6 1017.4 - 0.0
22/01:30am 8.1 5.3 5.2 82 1.3 S 9 11 5 6 1017.5 - 0.0
22/01:15am 8.4 6.0 5.1 80 1.5 S 7 11 4 6 1017.6 - 0.0
22/01:00am 8.7 5.9 5.2 79 1.6 S 9 11 5 6 1017.7 - 0.0
22/12:45am 8.6 5.8 5.3 80 1.5 SSW 9 11 5 6 1017.7 - 0.0
22/12:30am 8.2 5.4 5.1 81 1.4 SSW 9 11 5 6 1017.8 - 0.0
22/12:15am 8.3 5.4 4.9 79 1.5 S 9 13 5 7 1017.9 - 0.0
22/12:00am 8.9 6.2 5.6 80 1.5 S 9 11 5 6 1017.9 - 0.0
 
Date/Time
EST
Temp
°C
App
Temp
°C
Dew
Point
°C
Rel
Hum
%
Delta-T
°C
Wind Press
QNH
hPa
Press
MSL
hPa
Rain since
9am
mm
Dir  Spd
km/h
Gust
km/h
Spd
kts
Gust
kts
21/11:45pm 9.3 7.0 5.9 79 1.6 S 7 11 4 6 1018.0 - 0.0
21/11:30pm 9.6 7.3 5.9 78 1.7 S 7 11 4 6 1018.0 - 0.0
21/11:15pm 10.0 7.8 6.1 77 1.8 SSE 7 9 4 5 1018.0 - 0.0
21/11:00pm 10.1 7.8 5.9 75 2.0 SSE 7 11 4 6 1018.1 - 0.0
21/10:45pm 10.2 7.5 5.7 73 2.1 S 9 15 5 8 1018.1 - 0.0
21/10:30pm 10.4 6.3 6.0 74 2.1 SSW 17 20 9 11 1018.2 - 0.0
21/10:15pm 10.4 6.7 6.3 76 1.9 SW 15 22 8 12 1018.2 - 0.0
21/10:00pm 10.3 7.7 6.3 76 1.9 S 9 13 5 7 1017.9 - 0.0
21/09:45pm 10.5 7.2 6.4 76 1.9 S 13 17 7 9 1017.8 - 0.0
21/09:30pm 10.8 7.1 6.3 74 2.1 S 15 22 8 12 1017.9 - 0.0
21/09:15pm 11.1 7.4 6.3 72 2.3 S 15 22 8 12 1018.0 - 0.0
21/09:00pm 11.2 6.8 6.6 73 2.2 S 19 28 10 15 1018.1 - 0.0
21/08:45pm 11.1 7.2 7.1 76 1.9 SSW 17 26 9 14 1018.0 - 0.0
21/08:30pm 10.9 8.5 7.0 77 1.9 SW 9 13 5 7 1017.8 - 0.0
21/08:15pm 11.0 9.1 6.8 75 2.0 SW 6 9 3 5 1017.6 - 0.0
21/08:00pm 11.3 9.8 6.8 74 2.2 WSW 4 6 2 3 1017.4 - 0.0
21/07:45pm 11.4 10.3 6.8 73 2.2 W 2 4 1 2 1017.2 - 0.0
21/07:30pm 11.5 10.7 6.6 72 2.3 CALM 0 2 0 1 1017.0 - 0.0
21/07:15pm 11.6 10.4 6.5 71 2.4 NW 2 4 1 2 1016.9 - 0.0
21/07:00pm 11.8 10.6 6.5 70 2.5 N 2 4 1 2 1016.8 - 0.0
21/06:45pm 11.8 10.6 6.4 69 2.6 N 2 4 1 2 1016.7 - 0.0
21/06:30pm 12.0 10.8 6.4 68 2.7 NNW 2 4 1 2 1016.6 - 0.0
21/06:15pm 12.2 10.6 6.3 67 2.8 NNW 4 6 2 3 1016.4 - 0.0
21/06:00pm 12.4 10.8 6.4 67 2.9 NNW 4 6 2 3 1016.4 - 0.0
21/05:45pm 12.7 11.5 6.3 65 3.1 NNW 2 4 1 2 1016.2 - 0.0
21/05:30pm 13.2 12.0 6.3 63 3.3 NW 2 4 1 2 1016.0 - 0.0
21/05:15pm 13.5 12.2 6.2 61 3.5 WNW 2 4 1 2 1015.8 - 0.0
21/05:00pm 13.7 12.0 6.1 60 3.6 WNW 4 6 2 3 1015.7 - 0.0
21/04:45pm 13.8 12.2 6.2 60 3.7 NW 4 6 2 3 1015.7 - 0.0
21/04:30pm 13.8 11.8 6.1 59 3.7 NNW 6 9 3 5 1015.6 - 0.0
21/04:15pm 14.0 11.7 5.8 57 3.9 NNW 7 11 4 6 1015.6 - 0.0
21/04:00pm 14.2 12.1 5.8 57 4.0 NW 6 9 3 5 1015.5 - 0.0
21/03:45pm 14.3 12.2 5.6 56 4.1 NNW 6 9 3 5 1015.4 - 0.0
21/03:30pm 14.2 12.4 5.5 56 4.1 N 4 9 2 5 1015.3 - 0.0
21/03:15pm 14.2 12.6 6.2 58 3.9 NNW 4 7 2 4 1015.3 - 0.0
21/03:00pm 13.8 11.7 5.9 59 3.8 N 6 9 3 5 1015.4 - 0.0
21/02:45pm 13.9 11.3 5.9 58 3.8 NW 9 15 5 8 1015.7 - 0.0
21/02:30pm 13.9 10.9 5.9 58 3.8 NW 11 17 6 9 1015.7 - 0.0
21/02:15pm 14.2 12.0 6.2 58 3.9 NNW 7 15 4 8 1015.8 - 0.0
21/02:00pm 14.1 11.6 6.5 60 3.7 NNW 9 17 5 9 1016.0 - 0.0
21/01:45pm 13.9 11.4 6.6 61 3.5 N 9 15 5 8 1016.2 - 0.0
21/01:30pm 13.5 11.1 7.0 65 3.2 N 9 15 5 8 1016.5 - 0.0
21/01:15pm 13.0 11.0 6.9 66 3.0 - 7 13 4 7 1016.7 - 0.0
21/01:00pm 12.3 10.8 6.9 69 2.6 NW 4 9 2 5 1017.2 - 0.0
21/12:45pm 12.0 10.1 6.8 70 2.5 WNW 6 9 3 5 1017.6 - 0.0
21/12:30pm 12.0 9.5 6.4 68 2.7 NW 9 19 5 10 1017.9 - 0.0
21/12:15pm 12.3 9.7 6.2 66 2.9 NW 9 19 5 10 1018.2 - 0.0
21/12:00pm 12.6 9.6 6.2 65 3.1 NNW 11 17 6 9 1018.4 - 0.0
21/11:45am 12.6 9.3 6.2 65 3.1 NW 13 22 7 12 1018.6 - 0.0
21/11:30am 12.5 10.0 6.4 66 2.9 NW 9 19 5 10 1018.7 - 0.0
21/11:15am 12.0 9.4 5.9 66 2.9 NW 9 15 5 8 1018.7 - 0.0
21/11:00am 12.3 8.8 5.6 63 3.1 NW 13 19 7 10 1018.9 - 0.0
21/10:45am 12.8 9.8 5.9 63 3.3 NW 11 19 6 10 1019.0 - 0.0
21/10:30am 12.8 10.3 6.6 66 3.0 NW 9 19 5 10 1019.2 - 0.0
21/10:15am 12.1 9.1 6.1 67 2.8 NW 11 19 6 10 1019.2 - 0.0
21/10:00am 12.2 9.6 6.1 66 2.9 NW 9 13 5 7 1019.2 - 0.0
21/09:45am 12.3 9.3 6.2 66 2.9 WNW 11 19 6 10 1019.4 - 0.0
21/09:30am 12.4 9.0 6.0 65 3.0 WNW 13 19 7 10 1019.5 - 0.0
21/09:15am 12.8 9.5 6.2 64 3.2 WNW 13 20 7 11 1019.7 - 0.0
21/09:00am 12.6 10.0 6.3 65 3.0 WNW 9 19 5 10 1019.5 - 0.0
21/08:45am 12.2 10.2 6.3 67 2.8 W 6 9 3 5 1019.6 - 0.0
21/08:30am 11.4 9.2 6.3 71 2.4 W 7 13 4 7 1019.9 - 0.0
21/08:15am 10.7 8.1 6.2 74 2.1 WSW 9 13 5 7 1019.9 - 0.0
21/08:00am 9.9 6.6 6.2 78 1.7 WSW 13 13 7 7 1020.0 - 0.0
21/07:45am 9.2 6.1 5.7 79 1.6 WSW 11 13 6 7 1020.0 - 0.0
21/07:30am 8.8 5.3 5.4 79 1.5 WSW 13 15 7 8 1019.9 - 0.0
21/07:15am 8.8 5.3 5.4 79 1.5 WSW 13 13 7 7 1019.8 - 0.0
21/07:00am 9.1 5.3 5.9 80 1.5 W 15 17 8 9 1019.8 - 0.0
21/06:45am 8.8 5.1 6.5 85 1.1 W 15 19 8 10 1019.5 - 0.0
21/06:30am 7.0 3.8 5.0 87 0.9 WSW 11 17 6 9 1019.2 - 0.0
21/06:15am 6.4 3.4 4.1 85 1.0 SW 9 9 5 5 1018.9 - 0.0
21/06:00am 7.2 4.3 4.9 85 1.0 SW 9 11 5 6 1019.0 - 0.0
21/05:45am 7.6 4.5 5.5 86 0.9 WSW 11 13 6 7 1019.4 - 0.0
21/05:30am 6.8 3.6 4.9 88 0.8 WSW 11 11 6 6 1019.5 - 0.0
21/05:15am 6.2 3.2 4.0 86 0.9 WSW 9 11 5 6 1019.5 - 0.0
21/05:00am 6.4 3.4 4.2 86 1.0 SW 9 11 5 6 1019.5 - 0.0
21/04:45am 6.9 3.6 4.6 85 1.0 SW 11 13 6 7 1019.6 - 0.0
21/04:30am 6.8 3.2 4.9 88 0.8 WSW 13 13 7 7 1019.6 - 0.0
21/04:15am 6.5 3.2 4.5 87 0.9 WSW 11 13 6 7 1019.6 - 0.0
21/04:00am 6.2 2.8 4.2 87 0.9 WSW 11 11 6 6 1019.7 - 0.0
21/03:45am 6.7 3.0 4.7 87 0.9 WSW 13 13 7 7 1019.8 - 0.0

Latest Capital City Observations: Canberra | Sydney | Melbourne | Brisbane | Adelaide | Perth | Hobart | Darwin

Other Formats:

Comma delimited format used in spreadsheet applications
http://www.bom.gov.au/fwo/IDN60901/IDN60901.95757.axf

JavaScript Object Notation format (JSON) in row-major order
http://www.bom.gov.au/fwo/IDN60901/IDN60901.95757.json